Enterprise, AL

5:38 AM CDT on May 23, 2015 (GMT -0500)
Willow Bend | | Change Station
CLOSE
Current Station
Personal Weather Station
Location: Enterprise, AL
Elevation: 353 ft
Nearby Weather Stations

Elev 353 ft 31.34 °N, 85.87 °W | Updated 16 seconds ago

Clear
Clear
62.3 °F
Feels Like 62.3 °F
N
0.0
Wind Variable Wind from NE
Gusts 0.0 mph

Today
High -- | Low -- °F
--% Chance of Precip.
Yesterday
High -- | Low -- °F
Precip. -- in
5:43 AM 7:37 PM
Waxing Crescent, 29% visible
Pressure 30.20 in
Visibility 10.0 miles
Clouds Clear
Dew Point 50 °F
Humidity 63%
Rainfall 0.00 in
Snow Depth Not available.
UV 0 out of 12
Pollen 5.90 out of 12
Air Quality Not available.
Flu Activity Sporadic
METAR KLOR 230953Z AUTO 04003KT 10SM CLR 16/13 A3021 RMK AO2 SLP227 T01610128

More Conditions Fewer Conditions

Pressure 30.20 in
Visibility 10.0 miles
Clouds Clear
Dew Point 50 °F
Humidity 63%
Rainfall 0.00 in
Snow Depth Not available.
UV 0 out of 12
Pollen 5.90 out of 12
Air Quality Not available.
Flu Activity Sporadic
METAR KLOR 230953Z AUTO 04003KT 10SM CLR 16/13 A3021 RMK AO2 SLP227 T01610128

More Conditions Fewer Conditions

10-Day Weather Forecast

Almanac

Astronomy

May. 23, 2015 Rise Set
Actual Time
Civil Twilight
Nautical Twilight
Astronomical Twilight
Moon
Length of Visible Light
Length of Day
Tomorrow will be .
, % of the Moon is Illuminated

Today's Extremes

State Highs State Lows

Community

WunderPhotos

Upload Photos

1,823,407 photos uploaded!

WunderBlogs® & News

Nearby

Air Quality

  Air Quality AQ Index Pollutant
Not available.

Snow Depth

Station Depth Elevation

Earthquake Activity

City Distance Mag. Time & Date
Minimum magnitude displayed is 2.5.

Coastal Water Temperatures

Place Temperature

Stations

Nearby Weather Stations

Station Location Temp. Windchill Dew Point Humidity Wind Precip. Elev Updated Type